createdAt,value
2018-08-16T00:01:24.735Z,3.45
2018-08-16T00:03:52.140Z,4.28
2018-08-16T00:06:19.617Z,4.10
2018-08-16T00:08:47.049Z,4.10
2018-08-16T00:11:14.735Z,4.22
2018-08-16T00:13:42.146Z,4.25
2018-08-16T00:16:09.605Z,4.35
2018-08-16T00:18:37.004Z,3.90
2018-08-16T00:21:04.472Z,4.37
2018-08-16T00:23:31.932Z,4.97
2018-08-16T00:25:59.399Z,4.07
2018-08-16T00:28:26.843Z,4.05
2018-08-16T00:30:54.295Z,3.22
2018-08-16T00:33:21.806Z,3.45
2018-08-16T00:35:49.268Z,4.40
2018-08-16T00:38:16.676Z,4.60
2018-08-16T00:40:44.129Z,4.85
2018-08-16T00:43:11.565Z,3.65
2018-08-16T00:45:39.028Z,3.97
2018-08-16T00:48:06.937Z,4.28
2018-08-16T00:50:34.355Z,5.25
2018-08-16T00:53:01.809Z,4.28
2018-08-16T00:55:29.579Z,4.75
2018-08-16T00:57:57.090Z,3.58
2018-08-16T01:00:24.481Z,3.10
2018-08-16T01:02:51.917Z,4.12
2018-08-16T01:05:19.435Z,3.83
2018-08-16T01:07:46.906Z,3.10
2018-08-16T01:10:14.344Z,4.03
2018-08-16T01:12:42.211Z,4.57
2018-08-16T01:15:09.617Z,4.12
2018-08-16T01:17:37.048Z,4.05
2018-08-16T01:20:04.503Z,3.78
2018-08-16T01:22:31.919Z,3.70
2018-08-16T01:24:59.350Z,4.15
2018-08-16T01:27:26.766Z,3.55
2018-08-16T01:29:54.186Z,3.70
2018-08-16T01:32:21.631Z,4.15
2018-08-16T01:34:49.083Z,3.50
2018-08-16T01:37:16.562Z,4.32
2018-08-16T01:39:43.988Z,3.87
2018-08-16T01:42:11.433Z,4.47
2018-08-16T01:44:38.897Z,3.22
2018-08-16T01:47:06.372Z,4.62
2018-08-16T01:49:33.844Z,3.90
2018-08-16T01:52:01.256Z,3.55
2018-08-16T01:54:28.756Z,3.80
2018-08-16T01:56:56.248Z,2.97
2018-08-16T01:59:23.731Z,2.75
2018-08-16T02:01:51.152Z,3.37
2018-08-16T02:04:18.546Z,2.60
2018-08-16T02:06:46.036Z,3.03
2018-08-16T02:09:13.496Z,4.25
2018-08-16T02:11:40.972Z,3.40
2018-08-16T02:14:08.376Z,3.95
2018-08-16T02:16:35.948Z,3.00
2018-08-16T02:19:03.345Z,4.00
2018-08-16T02:21:30.750Z,3.42
2018-08-16T02:23:58.221Z,3.85
2018-08-16T02:26:25.653Z,3.70
2018-08-16T02:28:53.166Z,3.30
2018-08-16T02:31:20.600Z,3.35
2018-08-16T02:33:48.059Z,3.33
2018-08-16T02:36:15.534Z,3.12
2018-08-16T02:38:42.942Z,3.62
2018-08-16T02:41:10.426Z,3.70
2018-08-16T02:43:37.841Z,2.45
2018-08-16T02:46:05.267Z,3.92
2018-08-16T02:48:32.711Z,3.08
2018-08-16T02:51:00.229Z,3.75
2018-08-16T02:53:27.604Z,3.55
2018-08-16T02:55:55.079Z,3.72
2018-08-16T02:58:22.549Z,3.50
2018-08-16T03:00:49.940Z,3.53
2018-08-16T03:03:17.346Z,2.90
2018-08-16T03:05:44.800Z,3.12
2018-08-16T03:08:12.248Z,3.78
2018-08-16T03:10:39.646Z,3.83
2018-08-16T03:13:07.076Z,3.95
2018-08-16T03:15:34.467Z,5.18
2018-08-16T03:18:01.958Z,4.68
2018-08-16T03:20:29.405Z,4.50
2018-08-16T03:22:56.843Z,3.15
2018-08-16T03:25:25.074Z,3.58
2018-08-16T03:27:52.497Z,3.40
2018-08-16T03:30:20.591Z,4.75
2018-08-16T03:32:48.036Z,3.25
2018-08-16T03:35:15.534Z,3.60
2018-08-16T03:37:43.005Z,3.90
2018-08-16T03:40:11.108Z,3.28
2018-08-16T03:42:38.582Z,3.62
2018-08-16T03:45:06.110Z,4.12
2018-08-16T03:47:33.548Z,4.53
2018-08-16T03:50:00.998Z,3.37
2018-08-16T03:52:28.435Z,2.70
2018-08-16T03:54:55.877Z,3.67
2018-08-16T03:57:23.322Z,3.65
2018-08-16T03:59:50.765Z,3.92
2018-08-16T04:02:18.170Z,3.97
2018-08-16T04:04:45.625Z,3.28
2018-08-16T04:07:13.152Z,4.00
2018-08-16T04:09:40.572Z,4.20
2018-08-16T04:12:08.002Z,3.30
2018-08-16T04:14:35.414Z,3.10
2018-08-16T04:17:02.868Z,3.37
2018-08-16T04:19:30.478Z,3.00
2018-08-16T04:21:58.470Z,4.35
2018-08-16T04:24:26.023Z,3.05
2018-08-16T04:26:53.456Z,3.95
2018-08-16T04:29:20.908Z,3.37
2018-08-16T04:31:48.364Z,3.65
2018-08-16T04:34:15.787Z,4.50
2018-08-16T04:36:43.215Z,3.50
2018-08-16T04:39:10.631Z,4.25
2018-08-16T04:41:38.141Z,3.40
2018-08-16T04:44:05.555Z,3.75
2018-08-16T04:46:33.026Z,4.78
2018-08-16T04:49:00.714Z,2.67
2018-08-16T04:51:28.194Z,4.37
2018-08-16T04:53:55.589Z,3.65
2018-08-16T04:56:23.051Z,3.92
2018-08-16T04:58:50.471Z,4.22
2018-08-16T05:01:17.866Z,3.75
2018-08-16T05:03:45.299Z,5.05
2018-08-16T05:06:12.719Z,3.10
2018-08-16T05:08:40.164Z,3.60
2018-08-16T05:11:07.658Z,4.80
2018-08-16T05:13:35.059Z,3.70
2018-08-16T05:16:02.502Z,2.92
2018-08-16T05:18:30.002Z,3.62
2018-08-16T05:20:57.476Z,3.65
2018-08-16T05:23:25.049Z,4.28
2018-08-16T05:25:52.517Z,4.85
2018-08-16T05:28:19.972Z,3.40
2018-08-16T05:30:47.424Z,4.72
2018-08-16T05:33:14.955Z,3.47
2018-08-16T05:35:42.377Z,4.03
2018-08-16T05:38:09.848Z,3.97
2018-08-16T05:40:37.286Z,4.05
2018-08-16T05:43:04.856Z,4.65
2018-08-16T05:45:32.338Z,3.60
2018-08-16T05:47:59.793Z,6.15
2018-08-16T05:50:27.275Z,4.00
2018-08-16T05:52:54.706Z,4.40
2018-08-16T05:55:22.381Z,4.80
2018-08-16T05:57:49.851Z,5.30
2018-08-16T06:00:17.309Z,4.10
2018-08-16T06:02:44.964Z,4.78
2018-08-16T06:05:12.378Z,6.00
2018-08-16T06:07:40.003Z,5.50
2018-08-16T06:10:07.331Z,5.30
2018-08-16T06:12:34.783Z,4.95
2018-08-16T06:15:02.235Z,5.65
2018-08-16T06:17:29.739Z,5.30
2018-08-16T06:19:57.222Z,4.70
2018-08-16T06:22:24.717Z,4.57
2018-08-16T06:24:52.176Z,4.97
2018-08-16T06:27:19.595Z,4.75
2018-08-16T06:29:47.005Z,4.18
2018-08-16T06:32:14.456Z,5.40
2018-08-16T06:34:41.909Z,5.40
2018-08-16T06:37:09.345Z,5.18
2018-08-16T06:39:36.832Z,5.00
2018-08-16T06:42:04.384Z,5.70
2018-08-16T06:44:31.876Z,6.30
2018-08-16T06:46:59.302Z,5.37
2018-08-16T06:49:26.824Z,6.10
2018-08-16T06:51:54.290Z,6.15
2018-08-16T06:54:22.615Z,6.37
2018-08-16T06:56:50.019Z,6.07
2018-08-16T06:59:17.463Z,7.12
2018-08-16T07:01:45.023Z,5.80
2018-08-16T07:04:12.449Z,6.45
2018-08-16T07:06:40.095Z,7.30
2018-08-16T07:09:07.536Z,7.15
2018-08-16T07:11:35.120Z,10.20
2018-08-16T07:14:02.859Z,7.25
2018-08-16T07:16:30.354Z,9.27
2018-08-16T07:18:57.921Z,7.82
2018-08-16T07:21:25.377Z,8.75
2018-08-16T07:23:52.823Z,7.22
2018-08-16T07:26:20.311Z,8.07
2018-08-16T07:28:47.820Z,9.20
2018-08-16T07:31:15.476Z,7.87
2018-08-16T07:33:43.017Z,7.40
2018-08-16T07:36:10.881Z,9.30
2018-08-16T07:38:38.415Z,6.47
2018-08-16T07:41:05.863Z,8.25
2018-08-16T07:43:33.338Z,7.00
2018-08-16T07:46:00.833Z,8.15
2018-08-16T07:48:28.324Z,9.18
2018-08-16T07:50:55.798Z,7.25
2018-08-16T07:53:23.216Z,7.75
2018-08-16T07:55:50.847Z,6.93
2018-08-16T07:58:18.346Z,8.38
2018-08-16T08:00:45.763Z,8.77
2018-08-16T08:03:13.241Z,76.85
2018-08-16T08:05:40.699Z,37.38
2018-08-16T08:08:08.109Z,5.87
2018-08-16T08:10:35.835Z,11.25
2018-08-16T08:13:03.458Z,5.50
2018-08-16T08:15:30.964Z,6.35
2018-08-16T08:32:41.184Z,57.77
2018-08-16T08:35:08.695Z,56.80
2018-08-16T08:37:47.926Z,69.10
2018-08-16T09:02:52.724Z,68.85
2018-08-16T09:05:20.162Z,65.62
2018-08-16T09:07:47.732Z,63.00
2018-08-16T09:10:26.987Z,62.90
2018-08-16T09:18:19.384Z,66.45
2018-08-16T09:25:41.061Z,65.95
2018-08-16T09:41:26.862Z,61.70
2018-08-16T09:48:54.384Z,60.47
2018-08-16T09:51:21.821Z,58.63
2018-08-16T09:53:49.283Z,61.20
2018-08-16T09:56:16.747Z,61.42
2018-08-16T09:58:44.238Z,61.42
2018-08-16T10:01:11.725Z,60.95
2018-08-16T10:03:39.207Z,65.95
2018-08-16T10:06:06.679Z,67.53
2018-08-16T10:08:34.185Z,61.13
2018-08-16T10:11:01.603Z,66.90
2018-08-16T10:13:29.139Z,68.37
2018-08-16T10:15:56.551Z,73.55
2018-08-16T10:18:24.040Z,73.57
2018-08-16T10:20:51.640Z,72.75
2018-08-16T10:23:19.089Z,70.28
2018-08-16T10:25:46.720Z,71.80
2018-08-16T10:28:14.380Z,74.90
2018-08-16T10:30:41.823Z,112.85
2018-08-16T10:33:09.263Z,72.62
2018-08-16T10:35:36.682Z,80.85
2018-08-16T10:38:04.116Z,79.00
2018-08-16T10:45:25.517Z,74.60
2018-08-16T10:57:41.094Z,87.47
2018-08-16T11:00:08.585Z,79.20
2018-08-16T11:02:36.013Z,73.47
2018-08-16T11:05:03.580Z,77.65
2018-08-16T11:07:31.124Z,74.78
2018-08-16T11:09:58.520Z,84.45
2018-08-16T11:12:26.054Z,84.32
2018-08-16T11:51:39.287Z,79.43
2018-08-16T11:54:06.733Z,81.80
2018-08-16T11:56:34.205Z,89.00
2018-08-16T11:59:02.283Z,90.62
2018-08-16T12:01:29.912Z,84.97
2018-08-16T12:06:24.373Z,83.70
2018-08-16T12:08:51.801Z,5.60
2018-08-16T12:11:19.285Z,5.67
2018-08-16T12:13:46.759Z,7.43
2018-08-16T12:16:14.150Z,6.03
2018-08-16T12:21:08.761Z,6.20
2018-08-16T12:38:18.468Z,12.40
2018-08-16T12:40:45.905Z,9.60
2018-08-16T12:43:13.319Z,10.88
2018-08-16T12:45:40.760Z,9.57
2018-08-16T12:48:08.209Z,9.63
2018-08-16T12:50:35.677Z,10.13
2018-08-16T13:49:31.579Z,12.75
2018-08-16T14:06:41.934Z,7.37
2018-08-16T14:09:09.465Z,10.45
2018-08-16T15:07:59.315Z,12.27
2018-08-16T15:10:26.765Z,12.10
2018-08-16T15:12:54.337Z,14.57
2018-08-16T15:15:21.797Z,12.02
2018-08-16T15:17:49.292Z,9.45
2018-08-16T15:20:16.699Z,12.73
2018-08-16T15:22:44.477Z,13.48
2018-08-16T15:25:11.901Z,10.70
2018-08-16T15:27:39.318Z,8.13
2018-08-16T15:30:06.778Z,9.60
2018-08-16T15:32:34.259Z,8.10
2018-08-16T15:35:01.982Z,8.70
2018-08-16T15:37:29.637Z,9.25
2018-08-16T15:39:57.017Z,9.30
2018-08-16T15:57:06.494Z,9.50
2018-08-16T15:59:33.964Z,8.40
2018-08-16T16:02:01.404Z,6.00
2018-08-16T16:04:29.347Z,7.65
2018-08-16T16:06:56.816Z,7.60
2018-08-16T16:09:24.240Z,11.30
2018-08-16T16:11:51.682Z,12.40
2018-08-16T16:19:13.109Z,11.00
2018-08-16T16:24:08.304Z,9.60
2018-08-16T16:26:35.780Z,8.20
2018-08-16T16:29:03.258Z,10.35
2018-08-16T16:31:30.742Z,8.20
2018-08-16T16:33:58.210Z,10.95
2018-08-16T16:36:25.647Z,10.90
2018-08-16T16:38:53.129Z,7.50
2018-08-16T16:51:08.927Z,7.80
2018-08-16T16:53:36.397Z,7.62
2018-08-16T16:56:03.802Z,9.05
2018-08-16T16:58:31.320Z,8.48
2018-08-16T17:01:00.189Z,9.40
2018-08-16T17:03:27.592Z,12.43
2018-08-16T17:05:55.037Z,8.60
2018-08-16T17:08:22.490Z,8.30
2018-08-16T17:10:50.518Z,7.60
2018-08-16T17:13:17.969Z,8.02
2018-08-16T17:15:45.435Z,8.35
2018-08-16T17:18:13.025Z,8.05
2018-08-16T17:20:40.472Z,8.90
2018-08-16T17:23:07.954Z,8.73
2018-08-16T17:25:35.393Z,8.00
2018-08-16T17:28:02.958Z,6.30
2018-08-16T17:30:30.427Z,6.57
2018-08-16T17:32:57.888Z,7.18
2018-08-16T17:35:25.394Z,8.35
2018-08-16T17:37:52.882Z,9.40
2018-08-16T17:40:20.340Z,7.53
2018-08-16T17:42:47.787Z,9.05
2018-08-16T17:45:15.232Z,8.90
2018-08-16T17:47:42.660Z,6.35
2018-08-16T17:50:10.064Z,10.00
2018-08-16T17:52:37.563Z,9.93
2018-08-16T17:55:04.999Z,7.25
2018-08-16T17:57:32.466Z,8.82
2018-08-16T17:59:59.949Z,8.00
2018-08-16T18:02:27.352Z,8.05
2018-08-16T18:04:54.878Z,8.80
2018-08-16T18:07:22.361Z,16.15
2018-08-16T18:09:49.845Z,7.97
2018-08-16T18:12:17.342Z,6.70
2018-08-16T18:14:44.739Z,7.22
2018-08-16T18:17:12.229Z,7.87
2018-08-16T18:24:33.783Z,8.30
2018-08-16T18:27:01.226Z,7.00
2018-08-16T18:31:56.315Z,6.22
2018-08-16T18:34:23.792Z,6.95
2018-08-16T18:36:51.316Z,6.47
2018-08-16T18:39:19.629Z,9.05
2018-08-16T18:41:47.050Z,6.50
2018-08-16T18:44:14.496Z,5.18
2018-08-16T18:46:41.973Z,7.80
2018-08-16T18:49:09.481Z,7.35
2018-08-16T18:51:36.933Z,6.90
2018-08-16T18:54:04.387Z,7.30
2018-08-16T18:56:31.781Z,7.15
2018-08-16T18:58:59.313Z,9.18
2018-08-16T19:01:27.150Z,8.35
2018-08-16T19:03:54.542Z,7.90
2018-08-16T19:06:22.012Z,7.00
2018-08-16T19:08:49.419Z,7.90
2018-08-16T19:11:16.863Z,5.93
2018-08-16T19:13:45.675Z,8.23
2018-08-16T19:16:13.147Z,7.82
2018-08-16T19:18:40.693Z,11.55
2018-08-16T19:21:08.088Z,10.27
2018-08-16T19:23:35.502Z,8.40
2018-08-16T19:26:02.977Z,6.50
2018-08-16T19:30:57.547Z,9.03
2018-08-16T19:33:25.028Z,8.40
2018-08-16T19:35:52.576Z,7.90
2018-08-16T19:40:47.051Z,12.10
2018-08-16T19:43:14.521Z,6.23
2018-08-16T19:45:42.238Z,6.10
2018-08-16T19:48:09.880Z,7.75
2018-08-16T19:50:37.237Z,6.70
2018-08-16T19:53:04.679Z,6.43
2018-08-16T19:55:32.187Z,7.72
2018-08-16T19:58:00.144Z,7.93
2018-08-16T20:00:27.600Z,8.63
2018-08-16T20:02:55.061Z,8.10
2018-08-16T20:05:22.601Z,13.00
2018-08-16T20:07:50.145Z,21.10
2018-08-16T20:10:17.626Z,10.20
2018-08-16T20:12:45.071Z,8.85
2018-08-16T20:15:12.517Z,8.82
2018-08-16T20:17:39.966Z,9.95
2018-08-16T20:20:07.452Z,8.40
2018-08-16T20:22:35.138Z,8.60
2018-08-16T20:25:02.587Z,8.52
2018-08-16T20:27:29.998Z,7.75
2018-08-16T20:29:57.493Z,7.53
2018-08-16T20:32:24.968Z,9.38
2018-08-16T20:34:52.507Z,6.55
2018-08-16T20:37:19.908Z,5.05
2018-08-16T20:39:47.390Z,6.57
2018-08-16T20:42:14.876Z,5.05
2018-08-16T20:44:42.281Z,9.30
2018-08-16T20:47:10.477Z,7.78
2018-08-16T20:49:37.920Z,7.22
2018-08-16T20:52:05.374Z,6.95
2018-08-16T20:54:32.863Z,5.70
2018-08-16T20:57:00.302Z,6.15
2018-08-16T20:59:27.853Z,7.37
2018-08-16T21:01:55.796Z,7.07
2018-08-16T21:04:23.464Z,7.45
2018-08-16T21:06:50.894Z,8.43
2018-08-16T21:09:18.518Z,10.27
2018-08-16T21:11:45.984Z,8.02
2018-08-16T21:14:13.409Z,8.35
2018-08-16T21:16:40.883Z,6.25
2018-08-16T21:19:08.340Z,6.93
2018-08-16T21:21:35.842Z,7.78
2018-08-16T21:24:03.229Z,7.62
2018-08-16T21:26:30.629Z,7.03
2018-08-16T21:28:58.230Z,6.70
2018-08-16T21:31:25.743Z,5.18
2018-08-16T21:33:53.344Z,5.30
2018-08-16T21:36:20.803Z,4.75
2018-08-16T21:38:48.239Z,6.45
2018-08-16T21:41:15.733Z,5.85
2018-08-16T21:43:43.204Z,5.25
2018-08-16T21:46:10.667Z,5.90
2018-08-16T21:48:38.187Z,5.53
2018-08-16T21:51:05.651Z,5.70
2018-08-16T21:53:33.092Z,4.70
2018-08-16T21:56:00.553Z,6.00
2018-08-16T21:58:28.013Z,6.35
2018-08-16T22:00:55.579Z,4.53
2018-08-16T22:03:23.113Z,5.82
2018-08-16T22:05:50.707Z,4.78
2018-08-16T22:08:18.067Z,5.70
2018-08-16T22:10:45.552Z,6.18
2018-08-16T22:13:12.985Z,6.28
2018-08-16T22:18:08.018Z,4.62
2018-08-16T22:20:35.476Z,4.57
2018-08-16T22:23:03.400Z,4.25
2018-08-16T22:25:30.894Z,4.30
2018-08-16T22:27:58.297Z,4.97
2018-08-16T22:30:25.715Z,4.80
2018-08-16T22:32:53.121Z,5.20
2018-08-16T22:35:20.536Z,3.95
2018-08-16T22:37:48.019Z,4.80
2018-08-16T22:40:15.469Z,5.10
2018-08-16T22:42:42.958Z,4.70
2018-08-16T22:45:10.496Z,4.75
2018-08-16T22:47:37.974Z,4.20
2018-08-16T22:50:05.548Z,3.90
2018-08-16T23:04:48.391Z,3.95
2018-08-16T23:07:15.835Z,3.50
2018-08-16T23:12:10.293Z,4.10
2018-08-16T23:14:37.861Z,4.40
2018-08-16T23:17:05.270Z,4.10
2018-08-16T23:19:32.786Z,3.80
2018-08-16T23:22:00.301Z,3.80
2018-08-16T23:24:27.829Z,3.45
2018-08-16T23:26:55.646Z,3.87
2018-08-16T23:29:23.093Z,3.70
2018-08-16T23:31:50.625Z,3.70
2018-08-16T23:34:18.078Z,4.10
2018-08-16T23:39:15.308Z,4.40
2018-08-16T23:41:42.770Z,4.20
2018-08-16T23:44:10.537Z,5.30
2018-08-16T23:46:38.129Z,4.07
2018-08-16T23:49:05.587Z,4.15
2018-08-16T23:51:33.285Z,4.50
2018-08-16T23:54:00.821Z,4.45
2018-08-16T23:56:28.293Z,4.53
2018-08-16T23:58:55.767Z,4.35
